Time;durP1;ratioP1;P1;durP2;ratioP2;P2;SDS_P1;SDS_P2;PMS_P1;PMS_P2;Temp;Humidity;BMP_temperature;BMP_pressure;BME280_temperature;BME280_humidity;BME280_pressure;Samples;Min_cycle;Max_cycle;Signal;HPM_P1;HPM_P2
2022/06/14 00:01:01;;;;;;;3.45;1.70;;;18.30;44.30;;;;;;5051940;28;20021;-72
2022/06/14 00:03:30;;;;;;;4.18;2.10;;;18.30;44.40;;;;;;5063553;28;20109;-73
2022/06/14 00:05:59;;;;;;;4.35;1.92;;;18.30;44.50;;;;;;5064679;28;20554;-73
2022/06/14 00:08:26;;;;;;;9.90;3.20;;;18.20;44.40;;;;;;5070648;28;20370;-72
2022/06/14 00:10:54;;;;;;;4.13;1.85;;;18.20;44.60;;;;;;5068374;28;20078;-72
2022/06/14 00:13:20;;;;;;;2.83;1.90;;;18.20;44.60;;;;;;5038957;28;20387;-73
2022/06/14 00:15:47;;;;;;;4.10;2.13;;;18.10;44.60;;;;;;5060480;28;20024;-73
2022/06/14 00:18:15;;;;;;;5.05;2.08;;;18.10;44.60;;;;;;5060650;28;20064;-72
2022/06/14 00:20:43;;;;;;;4.70;2.13;;;18.00;44.50;;;;;;5057533;28;20040;-71
2022/06/14 00:23:09;;;;;;;4.50;2.33;;;18.00;44.70;;;;;;5052507;28;20039;-73
2022/06/14 00:25:39;;;;;;;7.82;2.63;;;18.00;44.80;;;;;;5054252;28;20036;-72
2022/06/14 00:28:07;;;;;;;4.82;1.85;;;17.90;44.70;;;;;;5063781;28;20068;-73
2022/06/14 00:30:34;;;;;;;2.97;1.73;;;17.90;44.80;;;;;;5052805;28;20417;-72
2022/06/14 00:33:00;;;;;;;4.32;1.95;;;17.90;44.90;;;;;;5058640;28;20074;-73
2022/06/14 00:35:27;;;;;;;4.32;2.00;;;17.80;44.70;;;;;;5060796;28;20127;-73
2022/06/14 00:37:54;;;;;;;3.53;2.00;;;17.80;44.90;;;;;;5048859;28;20037;-73
2022/06/14 00:40:25;;;;;;;4.97;1.92;;;17.80;45.00;;;;;;5055298;28;20024;-72
2022/06/14 00:42:51;;;;;;;3.13;2.05;;;17.70;44.90;;;;;;5060082;28;20033;-72
2022/06/14 00:45:17;;;;;;;3.75;1.70;;;17.70;45.00;;;;;;5058825;28;20029;-73
2022/06/14 00:47:51;;;;;;;5.00;2.65;;;17.60;44.90;;;;;;5055982;28;20082;-72
2022/06/14 00:50:25;;;;;;;5.40;2.25;;;17.60;45.00;;;;;;5058485;28;20491;-72
2022/06/14 00:53:03;;;;;;;4.05;1.90;;;17.60;45.20;;;;;;5057185;28;20017;-72
2022/06/14 00:56:01;;;;;;;2.95;1.70;;;17.50;45.10;;;;;;5036212;28;20033;-73
2022/06/14 00:58:33;;;;;;;3.30;1.88;;;17.50;45.20;;;;;;5013447;28;20044;-72
2022/06/14 01:01:02;;;;;;;3.38;2.00;;;17.50;45.10;;;;;;5054521;28;20033;-72
2022/06/14 01:03:39;;;;;;;4.00;1.70;;;17.40;45.00;;;;;;5057464;28;20151;-73
2022/06/14 01:06:17;;;;;;;3.13;1.58;;;17.40;45.20;;;;;;5047503;28;20986;-73
2022/06/14 01:08:47;;;;;;;2.80;1.25;;;17.30;45.00;;;;;;5041991;28;20494;-73
2022/06/14 01:11:23;;;;;;;3.53;2.13;;;17.30;45.10;;;;;;5050888;28;20033;-72
2022/06/14 01:13:50;;;;;;;2.22;1.60;;;17.30;45.20;;;;;;5039143;28;20122;-73
2022/06/14 01:16:16;;;;;;;2.22;1.67;;;17.30;45.30;;;;;;5058093;28;20041;-71
2022/06/14 01:18:42;;;;;;;3.05;1.67;;;17.20;45.10;;;;;;5058009;28;20485;-71
2022/06/14 01:21:08;;;;;;;4.72;1.83;;;17.20;45.20;;;;;;5049694;28;20479;-73
2022/06/14 01:23:34;;;;;;;7.82;2.78;;;17.20;45.30;;;;;;5060860;28;20311;-72
2022/06/14 01:26:16;;;;;;;3.92;1.92;;;17.20;45.40;;;;;;5056417;28;20111;-73
2022/06/14 01:28:47;;;;;;;5.53;2.13;;;17.10;45.30;;;;;;5053864;28;20542;-74
2022/06/14 01:31:16;;;;;;;3.75;1.73;;;17.10;45.40;;;;;;5045056;28;20021;-72
2022/06/14 01:33:49;;;;;;;4.07;1.85;;;17.10;45.40;;;;;;5051059;28;20525;-71
2022/06/14 01:36:21;;;;;;;4.15;1.90;;;17.00;45.40;;;;;;5035019;28;20249;-74
2022/06/14 01:38:49;;;;;;;2.60;1.58;;;17.00;45.40;;;;;;5054497;28;20091;-72
2022/06/14 01:41:27;;;;;;;2.13;1.30;;;16.90;45.30;;;;;;5052137;28;20029;-72
2022/06/14 01:44:21;;;;;;;1.77;1.20;;;17.00;45.70;;;;;;5055398;28;20029;-73
2022/06/14 01:47:23;;;;;;;5.47;1.40;;;16.90;45.50;;;;;;5058462;28;20106;-72
2022/06/14 01:53:21;;;;;;;4.13;1.83;;;16.80;45.40;;;;;;5061270;28;20031;-72
2022/06/14 01:55:50;;;;;;;3.70;1.70;;;16.80;46.10;;;;;;5054782;28;20274;-73
2022/06/14 01:58:21;;;;;;;3.22;1.63;;;16.70;45.30;;;;;;5046633;28;20490;-72
2022/06/14 02:01:11;;;;;;;3.42;2.47;;;16.70;45.50;;;;;;5044688;28;20028;-71
2022/06/14 02:07:07;;;;;;;5.07;2.63;;;16.60;45.50;;;;;;5050437;28;20116;-73
2022/06/14 02:09:59;;;;;;;3.80;2.10;;;16.50;45.40;;;;;;5058072;28;20032;-73
2022/06/14 02:12:37;;;;;;;4.28;2.30;;;16.60;45.60;;;;;;5060558;28;20409;-71
2022/06/14 02:15:17;;;;;;;3.05;1.48;;;16.60;45.60;;;;;;5056998;28;20025;-73
2022/06/14 02:18:08;;;;;;;2.50;1.65;;;16.50;45.50;;;;;;5062239;28;20385;-73
2022/06/14 02:20:43;;;;;;;4.60;1.50;;;16.50;45.60;;;;;;5058033;28;20058;-73
2022/06/14 02:23:09;;;;;;;3.25;1.80;;;16.50;45.70;;;;;;5057587;28;20029;-73
2022/06/14 02:25:59;;;;;;;5.05;2.42;;;16.40;45.60;;;;;;5057683;28;20922;-73
2022/06/14 02:28:43;;;;;;;2.05;1.33;;;16.40;45.60;;;;;;5061000;28;20025;-72
2022/06/14 02:31:21;;;;;;;3.30;1.60;;;16.40;45.60;;;;;;5060891;28;20098;-72
2022/06/14 02:33:56;;;;;;;2.55;1.48;;;16.40;45.70;;;;;;5061409;28;20670;-72
2022/06/14 02:36:30;;;;;;;2.47;1.65;;;16.30;45.50;;;;;;5056419;28;20094;-72
2022/06/14 02:39:01;;;;;;;3.97;1.92;;;16.30;45.60;;;;;;5064170;28;20077;-72
2022/06/14 02:41:33;;;;;;;4.47;1.98;;;16.30;45.70;;;;;;5065408;28;20031;-71
2022/06/14 02:44:13;;;;;;;3.63;1.75;;;16.20;45.60;;;;;;5059684;28;20029;-72
2022/06/14 02:47:04;;;;;;;3.15;1.80;;;16.20;45.70;;;;;;5063802;28;20029;-73
2022/06/14 02:49:33;;;;;;;2.75;1.65;;;16.20;45.80;;;;;;5036297;28;20055;-73
2022/06/14 02:52:07;;;;;;;3.20;2.10;;;16.10;45.50;;;;;;5057161;28;20116;-73
2022/06/14 02:54:39;;;;;;;5.03;1.90;;;16.10;45.60;;;;;;5061443;28;20138;-73
2022/06/14 02:57:08;;;;;;;2.60;1.60;;;16.00;45.50;;;;;;5039737;28;20123;-72
2022/06/14 02:59:53;;;;;;;3.25;1.50;;;16.10;45.80;;;;;;5046711;28;20102;-73
2022/06/14 03:02:36;;;;;;;2.42;1.35;;;16.00;45.70;;;;;;5060022;28;20290;-73
2022/06/14 03:05:29;;;;;;;2.60;1.50;;;16.00;45.80;;;;;;5062493;28;20029;-73
2022/06/14 03:08:03;;;;;;;3.53;2.00;;;16.00;45.80;;;;;;5054186;28;20870;-73
2022/06/14 03:10:45;;;;;;;3.47;1.42;;;15.90;45.60;;;;;;5045465;28;20399;-72
2022/06/14 03:13:58;;;;;;;5.22;2.22;;;15.90;46.30;;;;;;5056846;28;21027;-73
2022/06/14 03:16:38;;;;;;;3.90;1.50;;;15.90;45.80;;;;;;5056518;28;20020;-73
2022/06/14 03:19:29;;;;;;;3.13;1.52;;;15.90;45.70;;;;;;5034528;28;20147;-73
2022/06/14 03:22:03;;;;;;;4.68;1.70;;;15.80;45.60;;;;;;5042109;28;20029;-73
2022/06/14 03:24:44;;;;;;;3.72;1.75;;;15.80;45.60;;;;;;5061552;28;20029;-73
2022/06/14 03:27:33;;;;;;;7.55;2.35;;;15.80;45.70;;;;;;5065989;28;20031;-72
2022/06/14 03:30:23;;;;;;;2.85;1.50;;;15.80;45.80;;;;;;5062980;28;20029;-72
2022/06/14 03:33:04;;;;;;;3.38;1.45;;;15.70;45.60;;;;;;5053829;28;20024;-72
2022/06/14 03:35:35;;;;;;;4.35;1.95;;;15.70;45.70;;;;;;5064333;28;20120;-72
2022/06/14 03:38:11;;;;;;;3.97;1.50;;;15.70;45.70;;;;;;5050645;28;20055;-73
2022/06/14 03:40:37;;;;;;;2.00;1.42;;;15.60;45.50;;;;;;5057631;28;20842;-72
2022/06/14 03:43:03;;;;;;;2.17;1.27;;;15.60;45.60;;;;;;5041516;28;20041;-73
2022/06/14 03:45:44;;;;;;;2.33;1.67;;;15.60;45.70;;;;;;5059888;28;20028;-72
2022/06/14 03:48:11;;;;;;;4.00;1.58;;;15.60;45.80;;;;;;5057924;28;20186;-73
2022/06/14 03:50:50;;;;;;;3.60;2.03;;;15.60;45.80;;;;;;5064235;28;20041;-73
2022/06/14 03:53:44;;;;;;;3.08;1.50;;;15.50;45.80;;;;;;5059078;28;20106;-72
2022/06/14 03:56:18;;;;;;;2.33;1.60;;;15.50;45.90;;;;;;5058115;28;20029;-73
2022/06/14 03:59:06;;;;;;;3.22;1.60;;;15.50;45.80;;;;;;5028311;28;20032;-73
2022/06/14 04:01:41;;;;;;;4.45;2.28;;;15.50;45.90;;;;;;5060909;28;20028;-72
2022/06/14 04:04:29;;;;;;;2.50;1.42;;;15.40;45.70;;;;;;5071749;28;20261;-72
2022/06/14 04:07:40;;;;;;;3.95;1.70;;;15.40;45.80;;;;;;5062718;28;20582;-72
2022/06/14 04:10:33;;;;;;;2.05;1.58;;;15.40;45.90;;;;;;5032204;28;20131;-72
2022/06/14 04:13:26;;;;;;;4.15;1.65;;;15.40;45.90;;;;;;5063745;28;20032;-73
2022/06/14 04:15:58;;;;;;;2.90;2.00;;;15.40;45.90;;;;;;5062793;28;20724;-73
2022/06/14 04:18:51;;;;;;;3.03;1.90;;;15.40;45.80;;;;;;5056687;28;20090;-73
2022/06/14 04:21:20;;;;;;;2.40;1.60;;;15.30;45.80;;;;;;5067969;28;20617;-72
2022/06/14 04:24:17;;;;;;;2.80;1.58;;;15.30;45.70;;;;;;5055369;28;20056;-73
2022/06/14 04:27:19;;;;;;;2.67;1.45;;;15.30;45.90;;;;;;5052640;28;20032;-72
2022/06/14 04:29:58;;;;;;;4.75;1.33;;;15.30;45.80;;;;;;5037383;28;20551;-73
2022/06/14 04:32:28;;;;;;;2.45;1.98;;;15.30;45.80;;;;;;5052495;28;20035;-73
2022/06/14 04:35:18;;;;;;;2.97;1.73;;;15.30;45.80;;;;;;5060501;28;20092;-73
2022/06/14 04:38:16;;;;;;;1.60;1.38;;;15.30;46.00;;;;;;5061312;28;20048;-73
2022/06/14 04:40:54;;;;;;;2.63;1.30;;;15.30;45.90;;;;;;5030934;28;20409;-73
2022/06/14 04:43:36;;;;;;;2.47;1.60;;;15.30;46.00;;;;;;5057982;28;20120;-73
2022/06/14 04:46:09;;;;;;;3.67;1.20;;;15.30;46.00;;;;;;5042791;28;20121;-73
2022/06/14 04:48:59;;;;;;;4.18;1.80;;;15.30;46.00;;;;;;5051875;28;21688;-73
2022/06/14 04:51:39;;;;;;;2.03;1.40;;;15.40;46.30;;;;;;5036971;28;20114;-72
2022/06/14 04:54:30;;;;;;;4.20;1.95;;;15.30;46.00;;;;;;5059891;28;20272;-73
2022/06/14 04:57:28;;;;;;;2.90;2.10;;;15.30;46.00;;;;;;5026797;28;20063;-74
2022/06/14 05:00:08;;;;;;;3.30;1.67;;;15.40;46.30;;;;;;5021419;28;20079;-73
2022/06/14 05:02:47;;;;;;;2.95;1.65;;;15.40;46.20;;;;;;5053546;28;20036;-73
2022/06/14 05:05:26;;;;;;;2.47;1.45;;;15.40;46.30;;;;;;5053107;28;20036;-72
2022/06/14 05:08:13;;;;;;;3.30;1.73;;;15.40;46.30;;;;;;5036923;28;20571;-74
2022/06/14 05:10:57;;;;;;;3.80;2.17;;;15.40;46.30;;;;;;5045154;28;20601;-74
2022/06/14 05:13:26;;;;;;;2.88;1.35;;;15.50;46.60;;;;;;5056541;28;20505;-78
2022/06/14 05:16:04;;;;;;;4.18;1.90;;;15.50;46.50;;;;;;5051944;28;20054;-75
2022/06/14 05:18:36;;;;;;;3.25;1.30;;;15.50;46.60;;;;;;5054748;28;20044;-75
2022/06/14 05:21:12;;;;;;;4.03;1.55;;;15.50;46.60;;;;;;5026206;28;20357;-76
2022/06/14 05:23:44;;;;;;;2.03;1.48;;;15.50;46.60;;;;;;5052668;28;20086;-75
2022/06/14 05:26:28;;;;;;;2.35;1.10;;;15.60;46.80;;;;;;5052986;28;20052;-76
2022/06/14 05:29:19;;;;;;;3.00;1.40;;;15.60;46.80;;;;;;5057404;28;20090;-76
2022/06/14 05:32:10;;;;;;;3.00;1.25;;;15.60;46.80;;;;;;5049460;28;20032;-76
2022/06/14 05:35:03;;;;;;;2.50;1.15;;;15.60;46.80;;;;;;5056746;28;20387;-75
2022/06/14 05:37:50;;;;;;;4.55;1.77;;;15.70;47.00;;;;;;5054551;28;20503;-74
2022/06/14 05:40:37;;;;;;;5.00;1.83;;;15.70;47.00;;;;;;5050355;28;20330;-75
2022/06/14 05:43:09;;;;;;;2.67;1.40;;;15.70;47.00;;;;;;5029867;28;20373;-75
2022/06/14 05:45:44;;;;;;;3.90;1.50;;;15.80;47.00;;;;;;5048213;28;20025;-76
2022/06/14 05:48:16;;;;;;;1.73;1.08;;;15.80;47.20;;;;;;5056456;28;20491;-77
2022/06/14 05:50:51;;;;;;;3.35;1.60;;;15.80;47.40;;;;;;5051428;28;20047;-76
2022/06/14 05:53:29;;;;;;;3.00;1.60;;;15.90;48.10;;;;;;5056669;28;20103;-74
2022/06/14 05:56:01;;;;;;;5.15;2.20;;;16.00;48.60;;;;;;5054328;28;20041;-74
2022/06/14 05:59:18;;;;;;;3.60;1.70;;;16.20;49.10;;;;;;5056317;28;20505;-73
2022/06/14 06:02:09;;;;;;;3.33;1.95;;;16.30;50.20;;;;;;5044217;28;20036;-74
2022/06/14 06:04:52;;;;;;;2.45;1.20;;;16.40;50.10;;;;;;5048386;28;20067;-73
2022/06/14 06:07:28;;;;;;;3.88;1.35;;;16.60;50.10;;;;;;5054110;28;20045;-74
2022/06/14 06:10:05;;;;;;;3.28;1.38;;;16.70;50.00;;;;;;5055371;28;20040;-73
2022/06/14 06:12:37;;;;;;;2.88;1.27;;;16.80;50.10;;;;;;5048024;28;20041;-73
2022/06/14 06:15:22;;;;;;;1.83;1.15;;;17.00;50.20;;;;;;5053618;28;20078;-74
2022/06/14 06:18:01;;;;;;;5.28;1.98;;;17.10;50.20;;;;;;5053026;28;20135;-74
2022/06/14 06:20:52;;;;;;;1.92;1.10;;;17.20;49.90;;;;;;5036897;28;20108;-73
2022/06/14 06:23:34;;;;;;;2.53;1.83;;;17.50;50.30;;;;;;5057364;28;20114;-75
2022/06/14 06:26:00;;;;;;;2.75;1.95;;;17.70;50.10;;;;;;5043326;28;20046;-74
2022/06/14 06:28:37;;;;;;;3.45;1.10;;;18.00;50.80;;;;;;5031632;28;20103;-75
2022/06/14 06:31:05;;;;;;;4.93;1.27;;;18.40;50.40;;;;;;5063707;28;20091;-73
2022/06/14 06:33:40;;;;;;;2.55;1.60;;;18.80;50.00;;;;;;5069518;28;20056;-74
2022/06/14 06:36:28;;;;;;;2.92;1.10;;;19.40;50.10;;;;;;5049780;28;20029;-74
2022/06/14 06:39:12;;;;;;;1.52;1.15;;;20.20;50.30;;;;;;5060696;28;20179;-75
2022/06/14 06:41:54;;;;;;;4.05;1.45;;;20.80;49.70;;;;;;5065618;28;20776;-74
2022/06/14 06:44:48;;;;;;;4.00;2.05;;;21.60;49.60;;;;;;5040794;28;20400;-74
2022/06/14 06:47:38;;;;;;;2.22;1.10;;;22.30;49.50;;;;;;5068111;28;20044;-73
2022/06/14 06:50:24;;;;;;;2.08;0.98;;;22.90;49.20;;;;;;5032618;28;20418;-74
2022/06/14 06:53:08;;;;;;;2.70;1.23;;;23.70;49.30;;;;;;5036288;28;20021;-74
2022/06/14 06:55:43;;;;;;;2.05;1.35;;;24.20;49.10;;;;;;5035078;28;20029;-74
2022/06/14 06:58:33;;;;;;;2.10;1.30;;;24.80;49.80;;;;;;5014848;28;20040;-73
2022/06/14 07:01:02;;;;;;;3.00;1.75;;;25.40;48.60;;;;;;4992029;28;20744;-73
2022/06/14 07:03:46;;;;;;;2.72;1.33;;;26.00;48.20;;;;;;5036126;28;20041;-73
2022/06/14 07:06:21;;;;;;;1.40;1.02;;;26.40;47.60;;;;;;5019680;28;20029;-72
2022/06/14 07:08:56;;;;;;;2.42;1.10;;;27.00;46.90;;;;;;5033128;28;20021;-73
2022/06/14 07:11:54;;;;;;;2.33;0.93;;;27.40;46.30;;;;;;5039463;28;20527;-76
2022/06/14 07:14:29;;;;;;;2.10;0.90;;;28.00;45.60;;;;;;5013839;28;20485;-75
2022/06/14 07:17:11;;;;;;;1.92;1.40;;;28.40;45.10;;;;;;5032978;28;20387;-75
2022/06/14 07:20:02;;;;;;;1.75;0.98;;;28.80;44.70;;;;;;5033110;28;20113;-74
2022/06/14 07:22:38;;;;;;;2.03;1.00;;;28.90;44.50;;;;;;5031454;28;20029;-73
2022/06/14 07:25:23;;;;;;;1.55;1.15;;;29.00;44.60;;;;;;5036851;28;20550;-74
2022/06/14 07:28:12;;;;;;;1.95;0.77;;;29.10;44.50;;;;;;5036549;28;20409;-74
2022/06/14 07:30:50;;;;;;;1.85;1.10;;;29.20;44.50;;;;;;5038340;28;20052;-74
2022/06/14 07:33:19;;;;;;;3.58;1.02;;;29.60;44.10;;;;;;5038946;28;20493;-74
2022/06/14 07:36:00;;;;;;;1.83;0.98;;;30.10;43.50;;;;;;5036911;28;20033;-73
2022/06/14 07:38:37;;;;;;;2.72;1.67;;;30.70;42.40;;;;;;5013126;28;20589;-74
2022/06/14 07:41:25;;;;;;;1.63;0.93;;;31.30;42.30;;;;;;5020016;28;20041;-73
2022/06/14 07:44:06;;;;;;;1.23;0.93;;;31.80;40.70;;;;;;5037380;28;20476;-74
2022/06/14 07:46:40;;;;;;;2.80;1.10;;;32.30;40.20;;;;;;5030505;28;20065;-75
2022/06/14 07:49:14;;;;;;;2.00;0.95;;;32.70;39.60;;;;;;5048358;28;20044;-73
2022/06/14 07:52:16;;;;;;;2.20;1.08;;;33.20;38.90;;;;;;5058232;28;20725;-75
2022/06/14 07:54:47;;;;;;;2.45;0.98;;;33.70;38.10;;;;;;5052018;28;20706;-74
2022/06/14 07:57:16;;;;;;;1.58;0.90;;;34.20;37.70;;;;;;5055902;28;20036;-74
2022/06/14 07:59:54;;;;;;;2.05;1.40;;;34.60;37.10;;;;;;5057192;28;20136;-74
2022/06/14 08:02:20;;;;;;;2.03;1.00;;;34.90;36.80;;;;;;5058145;28;20031;-75
2022/06/14 08:05:06;;;;;;;2.72;1.23;;;34.90;36.70;;;;;;5053535;28;20037;-76
2022/06/14 08:07:33;;;;;;;1.80;0.85;;;34.50;36.50;;;;;;5055284;28;20029;-73
2022/06/14 08:10:18;;;;;;;2.08;1.00;;;34.20;37.40;;;;;;5058267;28;20112;-73
2022/06/14 08:12:47;;;;;;;2.30;0.93;;;33.80;37.40;;;;;;5052333;28;20460;-72
2022/06/14 08:15:21;;;;;;;2.72;1.15;;;33.50;38.10;;;;;;5054875;28;20028;-73
2022/06/14 08:17:57;;;;;;;2.40;1.30;;;33.20;38.30;;;;;;5023168;28;20163;-74
2022/06/14 08:20:51;;;;;;;1.40;0.80;;;33.00;38.50;;;;;;5057909;28;20016;-72
2022/06/14 08:23:29;;;;;;;2.20;0.80;;;32.90;38.60;;;;;;5051853;28;20056;-72
2022/06/14 08:26:04;;;;;;;4.00;1.23;;;32.80;38.60;;;;;;5053355;28;20500;-73
2022/06/14 08:28:48;;;;;;;1.00;0.73;;;32.70;38.60;;;;;;5056962;28;20132;-73
2022/06/14 08:31:34;;;;;;;2.53;0.88;;;32.60;38.40;;;;;;5057581;28;20124;-73
2022/06/14 08:34:13;;;;;;;1.90;1.13;;;32.70;38.50;;;;;;5058531;28;20032;-72
2022/06/14 08:36:48;;;;;;;1.88;0.93;;;32.70;38.40;;;;;;5055945;28;20138;-72
2022/06/14 08:39:24;;;;;;;1.13;0.82;;;32.70;38.30;;;;;;5054635;28;20491;-75
2022/06/14 08:42:08;;;;;;;6.65;1.52;;;32.80;38.20;;;;;;5034812;28;20029;-74
2022/06/14 08:44:57;;;;;;;1.70;0.77;;;32.80;37.90;;;;;;5055852;28;20055;-71
2022/06/14 08:47:53;;;;;;;2.67;1.20;;;33.00;37.80;;;;;;5028293;28;20174;-74
2022/06/14 08:50:57;;;;;;;1.35;0.73;;;33.00;37.70;;;;;;5035748;28;20512;-75
2022/06/14 08:53:28;;;;;;;1.52;1.17;;;33.00;37.70;;;;;;5055428;28;20031;-73
2022/06/14 08:56:13;;;;;;;2.47;1.27;;;33.10;37.80;;;;;;5055929;28;20025;-75
2022/06/14 08:59:20;;;;;;;2.80;0.80;;;33.10;37.60;;;;;;5044887;28;20052;-73
2022/06/14 09:02:04;;;;;;;2.33;0.98;;;33.20;37.50;;;;;;5037437;28;20025;-73
2022/06/14 09:04:52;;;;;;;2.72;0.80;;;33.20;37.50;;;;;;5055340;28;20357;-72
2022/06/14 09:07:40;;;;;;;2.97;0.70;;;33.30;37.30;;;;;;5038327;28;20028;-74
2022/06/14 09:10:27;;;;;;;2.05;0.90;;;33.30;37.50;;;;;;5057995;28;20044;-73
2022/06/14 09:13:16;;;;;;;3.35;0.85;;;33.30;37.20;;;;;;5051920;28;20024;-74
2022/06/14 09:15:54;;;;;;;1.85;0.98;;;33.20;37.20;;;;;;5053708;28;20523;-74
2022/06/14 09:18:38;;;;;;;2.80;1.52;;;33.30;37.10;;;;;;5046214;28;20135;-73
2022/06/14 09:22:01;;;;;;;2.63;1.00;;;33.40;37.10;;;;;;5021249;28;20048;-76
2022/06/14 09:24:51;;;;;;;1.50;0.75;;;33.50;36.90;;;;;;4973826;28;20059;-75
2022/06/14 09:27:35;;;;;;;2.47;1.13;;;33.70;36.90;;;;;;4953897;28;20450;-73
2022/06/14 09:30:25;;;;;;;1.25;0.88;;;33.80;36.60;;;;;;5032297;28;20861;-75
2022/06/14 09:33:09;;;;;;;4.28;1.60;;;34.00;36.60;;;;;;5058025;28;20091;-73
2022/06/14 09:35:54;;;;;;;2.40;1.00;;;34.20;36.50;;;;;;5048869;28;20020;-74
2022/06/14 09:38:29;;;;;;;1.52;0.70;;;34.30;36.20;;;;;;5054490;28;20352;-76
2022/06/14 09:41:01;;;;;;;1.55;0.98;;;34.30;36.10;;;;;;5033763;28;20127;-73
2022/06/14 09:43:56;;;;;;;2.13;0.93;;;34.30;36.20;;;;;;5059366;28;20041;-73
2022/06/14 09:46:43;;;;;;;3.60;1.25;;;34.30;36.20;;;;;;5052719;28;20051;-76
2022/06/14 09:49:42;;;;;;;2.28;1.33;;;34.40;36.10;;;;;;5057417;28;20052;-73
2022/06/14 09:52:33;;;;;;;2.58;1.33;;;34.50;35.80;;;;;;5054989;28;20307;-74
2022/06/14 09:55:36;;;;;;;2.50;1.17;;;34.30;35.60;;;;;;5052729;28;20060;-74
2022/06/14 09:58:26;;;;;;;4.00;1.15;;;34.00;35.80;;;;;;5036810;28;20029;-76
2022/06/14 10:01:17;;;;;;;4.88;1.27;;;33.70;35.80;;;;;;5037500;28;20037;-73
2022/06/14 10:03:43;;;;;;;3.28;1.20;;;33.30;35.70;;;;;;5060572;28;20059;-73
2022/06/14 10:06:44;;;;;;;5.18;1.20;;;32.80;36.20;;;;;;5057640;28;20463;-73
2022/06/14 10:09:49;;;;;;;2.13;1.20;;;32.50;36.10;;;;;;5036662;28;20219;-74
2022/06/14 10:12:34;;;;;;;3.50;1.25;;;32.30;36.30;;;;;;5060404;28;20116;-74
2022/06/14 10:15:14;;;;;;;1.95;1.20;;;32.30;36.40;;;;;;5059206;28;20032;-75
2022/06/14 10:18:00;;;;;;;3.88;1.25;;;32.60;36.20;;;;;;5038600;28;20021;-74
2022/06/14 10:21:00;;;;;;;2.28;1.38;;;33.00;36.10;;;;;;5020672;28;20068;-74
2022/06/14 10:23:47;;;;;;;2.25;1.08;;;33.40;35.90;;;;;;5057362;28;20032;-73
2022/06/14 10:29:43;;;;;;;1.58;1.20;;;33.90;35.40;;;;;;5060417;28;20062;-74
2022/06/14 10:32:27;;;;;;;4.03;1.55;;;34.20;35.10;;;;;;5056941;28;20040;-72
2022/06/14 10:35:30;;;;;;;2.22;0.93;;;34.40;35.00;;;;;;5053094;28;20035;-75
2022/06/14 10:38:09;;;;;;;4.13;1.52;;;34.40;34.70;;;;;;5039505;28;20124;-74
2022/06/14 10:40:41;;;;;;;2.47;1.15;;;34.40;34.80;;;;;;5060609;28;20092;-73
2022/06/14 10:43:20;;;;;;;2.53;1.13;;;34.30;35.00;;;;;;5058489;28;20036;-73
2022/06/14 10:45:54;;;;;;;3.25;1.45;;;34.10;35.10;;;;;;5061057;28;20593;-73
2022/06/14 10:48:45;;;;;;;2.53;1.10;;;33.90;35.30;;;;;;5053987;28;20542;-74
2022/06/14 10:51:36;;;;;;;1.52;0.82;;;33.90;35.30;;;;;;5054070;28;20052;-74
2022/06/14 10:54:16;;;;;;;1.75;1.20;;;34.00;35.40;;;;;;5043316;28;20698;-74
2022/06/14 10:57:14;;;;;;;3.38;1.40;;;34.30;35.40;;;;;;5055710;28;20055;-73
2022/06/14 10:59:55;;;;;;;1.90;1.10;;;34.80;35.10;;;;;;5036297;28;20033;-74
2022/06/14 11:02:36;;;;;;;2.10;1.05;;;35.20;34.90;;;;;;5059480;28;20079;-73
2022/06/14 11:05:17;;;;;;;2.20;1.10;;;35.30;34.50;;;;;;5054349;28;20842;-74
2022/06/14 11:08:01;;;;;;;3.10;1.58;;;35.20;34.60;;;;;;5035444;28;20036;-73
2022/06/14 11:10:39;;;;;;;2.17;1.35;;;35.10;34.80;;;;;;5059999;28;20207;-75
2022/06/14 11:13:05;;;;;;;1.95;1.10;;;35.00;35.00;;;;;;5039363;28;20476;-76
2022/06/14 11:15:37;;;;;;;2.30;1.00;;;34.90;35.10;;;;;;5041216;28;20043;-72
2022/06/14 11:18:08;;;;;;;2.22;1.40;;;35.10;34.90;;;;;;5022758;28;20120;-72
2022/06/14 11:20:40;;;;;;;3.70;1.27;;;35.30;34.70;;;;;;5054625;28;20197;-74
2022/06/14 11:23:16;;;;;;;1.50;0.73;;;35.60;34.30;;;;;;5059391;28;20032;-73
2022/06/14 11:25:48;;;;;;;1.83;1.08;;;35.70;34.80;;;;;;5056803;28;20116;-73
2022/06/14 11:28:37;;;;;;;1.13;0.82;;;35.80;34.10;;;;;;5032801;28;20033;-73
2022/06/14 11:31:18;;;;;;;2.85;1.02;;;35.90;34.10;;;;;;5059614;28;20067;-73
2022/06/14 11:34:13;;;;;;;2.28;1.00;;;36.10;34.00;;;;;;5039415;28;20059;-73
2022/06/14 11:37:03;;;;;;;2.88;1.38;;;36.10;33.80;;;;;;5059225;28;20067;-72
2022/06/14 11:39:48;;;;;;;2.53;1.40;;;36.00;34.00;;;;;;5054450;28;20415;-74
2022/06/14 11:42:28;;;;;;;1.50;1.20;;;36.00;34.10;;;;;;5053039;28;20453;-74
2022/06/14 11:44:57;;;;;;;2.50;1.23;;;36.30;34.00;;;;;;5039427;28;20551;-73
2022/06/14 11:47:46;;;;;;;1.67;0.90;;;36.70;33.90;;;;;;5060119;28;20046;-75
2022/06/14 11:50:48;;;;;;;2.20;1.40;;;37.00;33.30;;;;;;5058529;28;20040;-73
2022/06/14 11:53:36;;;;;;;2.88;1.25;;;37.30;33.20;;;;;;5058778;28;20032;-72
2022/06/14 11:56:11;;;;;;;2.70;1.00;;;37.20;32.90;;;;;;5059488;28;20036;-73
2022/06/14 11:59:05;;;;;;;2.30;0.90;;;37.00;32.90;;;;;;5058104;28;20219;-74
2022/06/14 12:02:08;;;;;;;2.03;1.25;;;36.80;33.10;;;;;;5056190;28;20527;-74
2022/06/14 12:05:08;;;;;;;2.63;1.23;;;36.70;33.30;;;;;;5060840;28;20029;-73
2022/06/14 12:07:52;;;;;;;1.77;1.25;;;36.70;33.30;;;;;;5059962;28;20058;-75
2022/06/14 12:10:33;;;;;;;2.53;1.15;;;36.50;34.10;;;;;;5033881;28;20029;-74
2022/06/14 12:13:13;;;;;;;2.33;1.08;;;36.30;33.60;;;;;;5053080;28;20074;-73
2022/06/14 12:15:59;;;;;;;2.60;1.45;;;36.00;33.80;;;;;;5038670;28;20025;-75
2022/06/14 12:18:30;;;;;;;2.15;1.20;;;35.90;33.90;;;;;;5052536;28;20039;-73
2022/06/14 12:21:14;;;;;;;3.45;1.23;;;35.90;33.90;;;;;;5062759;28;20372;-73
2022/06/14 12:23:48;;;;;;;1.33;0.90;;;36.20;33.90;;;;;;5057211;28;20039;-72
2022/06/14 12:26:35;;;;;;;3.17;1.30;;;36.50;33.60;;;;;;5055071;28;20480;-74
2022/06/14 12:29:07;;;;;;;2.08;1.20;;;36.70;33.50;;;;;;5064291;28;20488;-72
2022/06/14 12:32:07;;;;;;;2.70;1.20;;;37.00;33.30;;;;;;5041672;28;20037;-73
2022/06/14 12:34:50;;;;;;;3.20;1.23;;;37.00;33.10;;;;;;5057653;28;20024;-73
2022/06/14 12:38:01;;;;;;;2.20;1.10;;;37.00;33.20;;;;;;5034478;28;20021;-73
2022/06/14 12:40:52;;;;;;;1.55;1.05;;;37.10;33.10;;;;;;4978247;28;20807;-73
2022/06/14 12:43:21;;;;;;;3.25;1.08;;;37.30;33.10;;;;;;5055166;28;20119;-72
2022/06/14 12:45:55;;;;;;;3.10;1.23;;;37.30;33.60;;;;;;5062419;28;20111;-72
2022/06/14 12:48:55;;;;;;;1.75;1.00;;;37.50;32.90;;;;;;5056764;28;20430;-72
2022/06/14 12:51:26;;;;;;;3.05;1.25;;;37.70;32.90;;;;;;5055340;28;20071;-74
2022/06/14 12:54:16;;;;;;;3.63;1.13;;;37.90;33.00;;;;;;5059339;28;20036;-74
2022/06/14 12:56:54;;;;;;;2.25;1.60;;;37.90;32.70;;;;;;5041970;28;20044;-73
2022/06/14 12:59:51;;;;;;;2.63;0.95;;;38.10;32.70;;;;;;5065409;28;20044;-73
2022/06/14 13:02:39;;;;;;;1.83;1.17;;;38.30;32.60;;;;;;5063576;28;20037;-74
2022/06/14 13:05:22;;;;;;;2.17;1.00;;;38.40;32.50;;;;;;5053468;28;20098;-73
2022/06/14 13:08:33;;;;;;;2.25;1.13;;;38.50;32.50;;;;;;5064771;28;20016;-74
2022/06/14 13:11:24;;;;;;;2.42;1.20;;;38.60;32.40;;;;;;4971268;28;20070;-74
2022/06/14 13:14:06;;;;;;;2.60;1.20;;;38.80;32.40;;;;;;5065273;28;20040;-74
2022/06/14 13:16:53;;;;;;;2.28;1.20;;;38.90;32.50;;;;;;5076685;28;20156;-74
2022/06/14 13:19:46;;;;;;;1.88;1.20;;;39.00;32.20;;;;;;5076367;28;20048;-73
2022/06/14 13:22:20;;;;;;;2.15;1.17;;;39.20;32.20;;;;;;5074143;28;20021;-74
2022/06/14 13:25:01;;;;;;;1.52;0.90;;;39.30;32.20;;;;;;5069901;28;20024;-74
2022/06/14 13:27:59;;;;;;;2.10;1.15;;;39.30;32.10;;;;;;5078518;28;20025;-73
2022/06/14 13:30:49;;;;;;;3.30;1.15;;;39.40;32.00;;;;;;5070256;28;21317;-74
2022/06/14 13:33:31;;;;;;;1.38;1.00;;;39.60;32.00;;;;;;5071741;28;20043;-75
2022/06/14 13:36:12;;;;;;;1.23;1.02;;;39.70;32.00;;;;;;5069722;28;20485;-75
2022/06/14 13:39:04;;;;;;;1.58;1.13;;;39.80;31.90;;;;;;5043577;28;20104;-74
2022/06/14 13:42:01;;;;;;;1.95;0.95;;;39.90;31.80;;;;;;5072845;28;20081;-74
2022/06/14 13:44:47;;;;;;;3.25;1.50;;;40.00;31.60;;;;;;5065064;28;20036;-75
2022/06/14 13:47:43;;;;;;;1.60;1.30;;;40.20;31.50;;;;;;5064054;28;20028;-74
2022/06/14 13:50:20;;;;;;;2.70;1.38;;;40.30;31.30;;;;;;5048513;28;20075;-74
2022/06/14 13:53:06;;;;;;;1.73;1.30;;;40.50;31.40;;;;;;5047187;28;20036;-73
2022/06/14 13:55:42;;;;;;;3.08;0.98;;;40.60;31.10;;;;;;5061338;28;20055;-74
2022/06/14 13:58:08;;;;;;;2.75;1.10;;;40.70;31.10;;;;;;5055142;28;20207;-74
2022/06/14 14:00:41;;;;;;;2.78;1.40;;;40.80;30.90;;;;;;5035819;28;20556;-74
2022/06/14 14:03:41;;;;;;;1.85;1.13;;;40.90;30.80;;;;;;5058535;28;20024;-74
2022/06/14 14:06:36;;;;;;;2.80;1.30;;;41.10;30.70;;;;;;5056262;28;20033;-74
2022/06/14 14:09:20;;;;;;;2.97;1.38;;;41.30;30.80;;;;;;5058716;28;20033;-73
2022/06/14 14:12:04;;;;;;;2.13;0.98;;;41.40;30.60;;;;;;5045730;28;20092;-74